Time;durP1;ratioP1;P1;durP2;ratioP2;P2;SDS_P1;SDS_P2;PMS_P1;PMS_P2;Temp;Humidity;BMP_temperature;BMP_pressure;BME280_temperature;BME280_humidity;BME280_pressure;Samples;Min_cycle;Max_cycle;Signal;HPM_P1;HPM_P2
2023/02/08 00:01:25;;;;;;;97.85;94.05;;;6.80;95.30;;;;;;5029854;28;20036;-76
2023/02/08 00:03:51;;;;;;;99.38;95.57;;;6.90;95.30;;;;;;4995970;28;20413;-76
2023/02/08 00:06:17;;;;;;;98.22;94.50;;;7.00;95.30;;;;;;5012028;28;20053;-76
2023/02/08 00:08:44;;;;;;;96.55;92.90;;;7.00;95.30;;;;;;5029660;28;20061;-76
2023/02/08 00:11:10;;;;;;;96.72;93.03;;;7.10;95.30;;;;;;5028371;28;20108;-76
2023/02/08 00:13:38;;;;;;;92.82;89.32;;;7.20;95.20;;;;;;5012199;28;20024;-76
2023/02/08 00:16:04;;;;;;;94.32;90.82;;;7.30;95.20;;;;;;5028359;28;20025;-75
2023/02/08 00:18:30;;;;;;;94.32;90.78;;;7.40;95.20;;;;;;5029694;28;20030;-76
2023/02/08 00:20:56;;;;;;;93.30;89.80;;;7.50;95.20;;;;;;5028317;28;20504;-76
2023/02/08 00:23:22;;;;;;;94.10;90.60;;;7.60;95.20;;;;;;5028223;28;20041;-75
2023/02/08 00:25:48;;;;;;;90.53;87.13;;;7.60;95.20;;;;;;5028779;28;20072;-76
2023/02/08 00:28:16;;;;;;;91.05;87.65;;;7.70;95.20;;;;;;5011685;28;20053;-76
2023/02/08 00:30:42;;;;;;;90.93;87.53;;;7.70;95.10;;;;;;5028073;28;20375;-76
2023/02/08 00:33:08;;;;;;;89.65;86.35;;;7.80;95.20;;;;;;5028279;28;20029;-76
2023/02/08 00:35:34;;;;;;;90.95;87.55;;;7.80;95.20;;;;;;5027861;28;20036;-76
2023/02/08 00:38:00;;;;;;;89.18;85.88;;;7.90;95.20;;;;;;5027882;28;20030;-76
2023/02/08 00:40:26;;;;;;;87.53;84.32;;;7.90;95.20;;;;;;5011569;28;20045;-76
2023/02/08 00:42:52;;;;;;;91.45;88.05;;;8.00;95.20;;;;;;5029196;28;20475;-76
2023/02/08 00:45:18;;;;;;;87.97;84.72;;;8.10;95.20;;;;;;4995171;28;20116;-76
2023/02/08 00:47:44;;;;;;;88.97;85.68;;;8.10;95.10;;;;;;5029102;28;20065;-76
2023/02/08 00:50:10;;;;;;;90.32;87.00;;;8.10;95.10;;;;;;5027768;28;20030;-75
2023/02/08 00:52:35;;;;;;;90.10;86.75;;;8.20;95.20;;;;;;5029075;28;20585;-76
2023/02/08 00:55:01;;;;;;;84.40;81.30;;;8.20;95.20;;;;;;5011269;28;20025;-76
2023/02/08 00:57:27;;;;;;;83.90;80.80;;;8.30;95.20;;;;;;5011161;28;20539;-76
2023/02/08 00:59:53;;;;;;;86.45;83.25;;;8.30;95.20;;;;;;5027671;28;20086;-76
2023/02/08 01:02:18;;;;;;;84.63;81.53;;;8.30;95.20;;;;;;5011255;28;20551;-76
2023/02/08 01:04:44;;;;;;;83.53;80.43;;;8.40;95.30;;;;;;5027480;28;20204;-76
2023/02/08 01:07:10;;;;;;;81.10;78.10;;;8.40;95.30;;;;;;5028654;28;20033;-76
2023/02/08 01:09:35;;;;;;;79.90;76.95;;;8.40;95.30;;;;;;5028678;28;20147;-76
2023/02/08 01:12:02;;;;;;;77.55;74.65;;;8.50;95.30;;;;;;5011088;28;20498;-76
2023/02/08 01:14:27;;;;;;;;;;;8.60;95.30;;;;;;5011423;28;20540;-76
2023/02/08 01:16:53;;;;;;;80.22;77.32;;;8.60;95.30;;;;;;5027196;28;19948;-76
2023/02/08 01:19:19;;;;;;;75.05;72.25;;;8.60;95.20;;;;;;4994478;28;20115;-76
2023/02/08 01:21:45;;;;;;;74.00;71.30;;;8.60;95.20;;;;;;5027277;28;20079;-76
2023/02/08 01:24:11;;;;;;;76.80;74.00;;;8.60;95.20;;;;;;5027308;28;20037;-76
2023/02/08 01:26:37;;;;;;;73.18;70.47;;;8.70;95.30;;;;;;5010719;28;20041;-76
2023/02/08 01:29:03;;;;;;;;;;;8.70;95.20;;;;;;5028984;28;20057;-76
2023/02/08 01:31:37;;;;;;;77.00;74.20;;;8.70;95.30;;;;;;5028446;28;20326;-76
2023/02/08 01:34:04;;;;;;;75.75;72.95;;;8.70;95.20;;;;;;5028085;28;20021;-76
2023/02/08 01:36:31;;;;;;;77.63;74.80;;;8.70;95.20;;;;;;5027729;28;20025;-76
2023/02/08 01:38:57;;;;;;;79.82;76.90;;;8.70;95.20;;;;;;5028036;28;20108;-76
2023/02/08 01:41:25;;;;;;;82.43;79.43;;;8.60;95.20;;;;;;5028373;28;20119;-76
2023/02/08 01:44:17;;;;;;;81.95;78.95;;;8.60;95.20;;;;;;5026842;28;20033;-76
2023/02/08 01:46:45;;;;;;;82.55;79.55;;;8.60;95.20;;;;;;5017095;28;20107;-76
2023/02/08 01:49:31;;;;;;;81.03;78.03;;;8.60;95.20;;;;;;5026939;28;20083;-76
2023/02/08 01:52:02;;;;;;;80.35;77.40;;;8.60;95.30;;;;;;5027959;28;20021;-76
2023/02/08 01:54:32;;;;;;;82.15;79.15;;;8.60;95.20;;;;;;5028347;28;20025;-76
2023/02/08 01:56:58;;;;;;;82.10;79.10;;;8.60;95.20;;;;;;5027597;28;20246;-76
2023/02/08 01:59:35;;;;;;;80.43;77.53;;;8.60;95.20;;;;;;4993892;28;20130;-76
2023/02/08 02:02:03;;;;;;;81.60;78.60;;;8.60;95.30;;;;;;5028036;28;20029;-76
2023/02/08 02:04:29;;;;;;;80.72;77.75;;;8.60;95.30;;;;;;5027831;28;20305;-76
2023/02/08 02:06:58;;;;;;;79.72;76.82;;;8.50;95.30;;;;;;5027702;28;20029;-76
2023/02/08 02:09:35;;;;;;;80.03;77.13;;;8.50;95.30;;;;;;5026230;28;20022;-76
2023/02/08 02:12:01;;;;;;;;;;;8.50;95.30;;;;;;5026986;28;20049;-76
2023/02/08 02:14:27;;;;;;;80.15;77.25;;;8.50;95.30;;;;;;5026256;28;20333;-76
2023/02/08 02:16:52;;;;;;;;;;;8.40;95.20;;;;;;5027991;28;20114;-76
2023/02/08 02:19:44;;;;;;;80.90;77.93;;;8.40;95.20;;;;;;5026328;28;20012;-76
2023/02/08 02:22:30;;;;;;;86.10;82.90;;;8.30;95.10;;;;;;5026112;28;20034;-76
2023/02/08 02:25:03;;;;;;;85.72;82.63;;;8.20;95.00;;;;;;5015499;28;20124;-76
2023/02/08 02:27:50;;;;;;;87.40;84.20;;;8.10;95.10;;;;;;5027700;28;20032;-76
2023/02/08 02:30:28;;;;;;;90.10;86.80;;;8.00;95.10;;;;;;5028335;28;20033;-76
2023/02/08 02:33:14;;;;;;;89.60;86.30;;;7.80;95.10;;;;;;5026362;28;20037;-76
2023/02/08 02:35:53;;;;;;;94.65;91.15;;;7.70;95.10;;;;;;5027601;28;20045;-76
2023/02/08 02:38:31;;;;;;;93.32;89.90;;;7.60;95.20;;;;;;5027696;28;20029;-76
2023/02/08 02:41:11;;;;;;;92.80;89.40;;;7.50;95.20;;;;;;5026415;28;20170;-76
2023/02/08 02:43:51;;;;;;;97.18;93.57;;;7.40;95.20;;;;;;5027434;28;20029;-76
2023/02/08 02:46:39;;;;;;;95.90;92.32;;;7.30;95.20;;;;;;5026292;28;20026;-76
2023/02/08 02:49:44;;;;;;;95.82;92.25;;;7.30;95.20;;;;;;5029751;28;20041;-75
2023/02/08 02:52:45;;;;;;;101.50;97.70;;;7.20;95.20;;;;;;5030220;28;20026;-76
2023/02/08 02:55:15;;;;;;;98.65;94.95;;;7.20;95.20;;;;;;5030511;28;20033;-76
2023/02/08 02:57:42;;;;;;;100.32;96.60;;;7.10;95.20;;;;;;5029662;28;20556;-76
2023/02/08 03:00:10;;;;;;;104.78;100.88;;;7.10;95.30;;;;;;5030951;28;20043;-75
2023/02/08 03:02:36;;;;;;;99.68;95.97;;;7.10;95.30;;;;;;5030067;28;20040;-76
2023/02/08 03:05:06;;;;;;;102.60;98.78;;;7.10;95.30;;;;;;5029735;28;20179;-76
2023/02/08 03:07:47;;;;;;;102.20;98.35;;;7.10;95.30;;;;;;5029791;28;20136;-76
2023/02/08 03:10:31;;;;;;;98.25;94.55;;;7.10;95.30;;;;;;5031088;28;20032;-76
2023/02/08 03:13:06;;;;;;;99.13;95.40;;;7.10;95.30;;;;;;5029615;28;20018;-76
2023/02/08 03:15:49;;;;;;;99.32;95.63;;;7.20;95.50;;;;;;5029734;28;20150;-76
2023/02/08 03:18:48;;;;;;;95.75;92.15;;;7.10;95.30;;;;;;5029524;28;20127;-76
2023/02/08 03:21:25;;;;;;;96.65;93.05;;;7.10;95.30;;;;;;5030907;28;20025;-76
2023/02/08 03:24:12;;;;;;;95.43;91.88;;;7.10;95.30;;;;;;5030753;28;20068;-76
2023/02/08 03:26:49;;;;;;;93.45;89.95;;;7.10;95.30;;;;;;5029347;28;20367;-76
2023/02/08 03:29:28;;;;;;;91.75;88.35;;;7.20;95.40;;;;;;5029359;28;20049;-76
2023/02/08 03:32:03;;;;;;;93.95;90.45;;;7.20;95.40;;;;;;5030809;28;20389;-76
2023/02/08 03:34:40;;;;;;;93.68;90.18;;;7.30;95.40;;;;;;5029223;28;20040;-76
2023/02/08 03:37:14;;;;;;;92.10;88.70;;;7.30;95.30;;;;;;5029166;28;20125;-75
2023/02/08 03:39:41;;;;;;;94.10;90.60;;;7.40;95.30;;;;;;5030560;28;20382;-76
2023/02/08 03:42:23;;;;;;;92.63;89.20;;;7.40;95.30;;;;;;5030427;28;20398;-76
2023/02/08 03:45:01;;;;;;;87.65;84.35;;;7.40;95.30;;;;;;5030499;28;20030;-76
2023/02/08 03:47:35;;;;;;;89.78;86.45;;;7.40;95.40;;;;;;5028825;28;20079;-76
2023/02/08 03:50:07;;;;;;;88.18;84.88;;;7.50;95.40;;;;;;5028928;28;20030;-76
2023/02/08 03:52:34;;;;;;;88.13;84.88;;;7.50;95.40;;;;;;5028726;28;20024;-76
2023/02/08 03:55:11;;;;;;;84.63;81.53;;;7.60;95.40;;;;;;5030011;28;20029;-76
2023/02/08 03:57:56;;;;;;;84.55;81.45;;;7.70;95.40;;;;;;5028669;28;20049;-76
2023/02/08 04:00:23;;;;;;;81.28;78.28;;;7.80;95.40;;;;;;5028896;28;20053;-76
2023/02/08 04:02:57;;;;;;;;;;;7.80;95.40;;;;;;5013136;28;20038;-76
2023/02/08 04:05:23;;;;;;;79.35;76.45;;;7.90;95.40;;;;;;5029874;28;20413;-76
2023/02/08 04:07:50;;;;;;;79.60;76.70;;;8.00;95.30;;;;;;5028587;28;20025;-76
2023/02/08 04:10:16;;;;;;;76.80;74.00;;;8.00;95.30;;;;;;5030004;28;20064;-76
2023/02/08 04:12:44;;;;;;;75.95;73.15;;;8.00;95.30;;;;;;5029925;28;20057;-76
2023/02/08 04:15:10;;;;;;;75.45;72.65;;;8.00;95.30;;;;;;5028135;28;20548;-76
2023/02/08 04:17:35;;;;;;;74.03;71.32;;;8.10;95.30;;;;;;5011831;28;20362;-75
2023/02/08 04:20:01;;;;;;;71.40;68.80;;;8.10;95.30;;;;;;5029493;28;20045;-76
2023/02/08 04:22:27;;;;;;;69.40;66.88;;;8.10;95.30;;;;;;5012044;28;20033;-76
2023/02/08 04:24:52;;;;;;;70.25;67.65;;;8.10;95.30;;;;;;5028408;28;20033;-76
2023/02/08 04:27:18;;;;;;;68.10;65.60;;;8.10;95.30;;;;;;4995316;28;20132;-76
2023/02/08 04:29:44;;;;;;;65.78;63.38;;;8.10;95.30;;;;;;5028282;28;20367;-76
2023/02/08 04:32:10;;;;;;;67.32;64.82;;;8.10;95.30;;;;;;5029681;28;20024;-76
2023/02/08 04:34:37;;;;;;;65.68;63.28;;;8.10;95.30;;;;;;5028286;28;20114;-76
2023/02/08 04:37:03;;;;;;;62.58;60.28;;;8.10;95.30;;;;;;5011790;28;20017;-76
2023/02/08 04:39:29;;;;;;;;;;;8.10;95.30;;;;;;5011982;28;20049;-76
2023/02/08 04:41:55;;;;;;;56.15;54.05;;;8.10;95.30;;;;;;5029260;28;20365;-76
2023/02/08 04:44:20;;;;;;;59.47;57.28;;;8.10;95.30;;;;;;5011687;28;20456;-76
2023/02/08 04:46:46;;;;;;;56.70;54.60;;;8.10;95.30;;;;;;5029011;28;20030;-76
2023/02/08 04:49:12;;;;;;;56.63;54.53;;;8.10;95.30;;;;;;5011352;28;20029;-76
2023/02/08 04:51:38;;;;;;;54.63;52.63;;;8.20;95.30;;;;;;5011501;28;20132;-76
2023/02/08 04:54:03;;;;;;;55.47;53.47;;;8.20;95.30;;;;;;5011502;28;20044;-76
2023/02/08 04:56:29;;;;;;;54.10;52.10;;;8.10;95.30;;;;;;5027515;28;20069;-76
2023/02/08 04:58:55;;;;;;;51.17;49.28;;;8.10;95.30;;;;;;5027522;28;20504;-76
2023/02/08 05:01:20;;;;;;;51.35;49.45;;;8.20;95.30;;;;;;4994765;28;20187;-76
2023/02/08 05:03:46;;;;;;;53.05;51.08;;;8.10;95.30;;;;;;5011245;28;20033;-76
2023/02/08 05:06:12;;;;;;;40.63;39.13;;;8.10;95.20;;;;;;5027687;28;20030;-76
2023/02/08 05:08:37;;;;;;;39.92;38.42;;;8.00;95.20;;;;;;5011114;28;20389;-76
2023/02/08 05:11:03;;;;;;;42.55;40.95;;;7.90;95.20;;;;;;4994381;28;20043;-76
2023/02/08 05:13:29;;;;;;;42.10;40.50;;;7.80;95.30;;;;;;4994762;28;20049;-76
2023/02/08 05:15:55;;;;;;;42.33;40.72;;;7.70;95.30;;;;;;5010752;28;20045;-77
2023/02/08 05:18:21;;;;;;;42.90;41.30;;;7.70;95.30;;;;;;5028515;28;20029;-76
2023/02/08 05:20:57;;;;;;;45.10;43.40;;;7.70;95.30;;;;;;5010995;28;20537;-76
2023/02/08 05:23:23;;;;;;;44.35;42.75;;;7.60;95.30;;;;;;5027266;28;20029;-77
2023/02/08 05:25:49;;;;;;;42.97;41.38;;;7.50;95.20;;;;;;5027252;28;20033;-76
2023/02/08 05:28:15;;;;;;;45.17;43.47;;;7.50;95.20;;;;;;5027206;28;20047;-76
2023/02/08 05:30:41;;;;;;;45.10;43.40;;;7.40;95.30;;;;;;5010666;28;20128;-76
2023/02/08 05:33:06;;;;;;;43.67;42.08;;;7.40;95.30;;;;;;5010911;28;20477;-76
2023/02/08 05:35:32;;;;;;;43.95;42.35;;;7.40;95.30;;;;;;5010722;28;20037;-76
2023/02/08 05:37:58;;;;;;;42.53;40.92;;;7.40;95.30;;;;;;5027154;28;20026;-76
2023/02/08 05:40:23;;;;;;;44.25;42.65;;;7.40;95.30;;;;;;5010554;28;20037;-76
2023/02/08 05:42:49;;;;;;;45.40;43.70;;;7.40;95.30;;;;;;5027101;28;20030;-76
2023/02/08 05:45:15;;;;;;;50.13;48.33;;;7.40;95.20;;;;;;5026786;28;20397;-76
2023/02/08 05:47:41;;;;;;;50.75;48.85;;;7.30;95.10;;;;;;5026733;28;20414;-76
2023/02/08 05:50:07;;;;;;;52.80;50.90;;;7.20;95.10;;;;;;5028028;28;20041;-76
2023/02/08 05:52:33;;;;;;;54.28;52.28;;;7.10;95.10;;;;;;5027994;28;20024;-76
2023/02/08 05:54:59;;;;;;;54.05;52.05;;;7.00;95.10;;;;;;5027917;28;20048;-76
2023/02/08 05:57:24;;;;;;;58.00;55.90;;;6.90;95.10;;;;;;5026417;28;20069;-76
2023/02/08 05:59:50;;;;;;;56.03;53.92;;;6.90;95.20;;;;;;4993605;28;20044;-76
2023/02/08 06:02:16;;;;;;;58.10;56.00;;;6.80;95.10;;;;;;5010344;28;20489;-76
2023/02/08 06:04:41;;;;;;;60.22;58.03;;;6.80;95.20;;;;;;5026699;28;20037;-76
2023/02/08 06:07:07;;;;;;;60.25;58.05;;;6.70;95.10;;;;;;5026523;28;20044;-76
2023/02/08 06:09:33;;;;;;;63.70;61.40;;;6.60;95.10;;;;;;5026744;28;20037;-76
2023/02/08 06:11:58;;;;;;;63.30;61.00;;;6.60;95.20;;;;;;5010190;28;20679;-76
2023/02/08 06:14:24;;;;;;;62.10;59.80;;;6.60;95.20;;;;;;5009831;28;20038;-76
2023/02/08 06:16:50;;;;;;;62.75;60.45;;;6.50;95.20;;;;;;5009895;28;20079;-75
2023/02/08 06:19:15;;;;;;;64.70;62.30;;;6.50;95.20;;;;;;5027376;28;20034;-76
2023/02/08 06:21:41;;;;;;;63.90;61.50;;;6.40;95.20;;;;;;4993552;28;20034;-76
2023/02/08 06:24:07;;;;;;;64.03;61.63;;;6.40;95.20;;;;;;4992892;28;20048;-76
2023/02/08 06:26:33;;;;;;;65.95;63.55;;;6.40;95.20;;;;;;5010836;28;20021;-81
2023/02/08 06:28:59;;;;;;;64.25;61.85;;;6.30;95.20;;;;;;5028864;28;20068;-82
2023/02/08 06:31:25;;;;;;;68.20;65.70;;;6.30;95.20;;;;;;5028435;28;20026;-81
2023/02/08 06:33:50;;;;;;;67.75;65.25;;;6.30;95.40;;;;;;5028276;28;20111;-81
2023/02/08 06:36:16;;;;;;;65.40;63.00;;;6.30;95.20;;;;;;5027964;28;20467;-82
2023/02/08 06:38:42;;;;;;;66.32;63.83;;;6.30;95.20;;;;;;5028192;28;20053;-83
2023/02/08 06:41:08;;;;;;;68.10;65.60;;;6.30;95.20;;;;;;5026360;28;20421;-82
2023/02/08 06:43:34;;;;;;;66.07;63.58;;;6.20;95.20;;;;;;5026400;28;20034;-81
2023/02/08 06:46:03;;;;;;;66.30;63.80;;;6.20;95.20;;;;;;5026577;28;20029;-81
2023/02/08 06:48:29;;;;;;;66.78;64.28;;;6.20;95.20;;;;;;5010402;28;20611;-82
2023/02/08 06:50:55;;;;;;;67.35;64.85;;;6.20;95.20;;;;;;5026934;28;20083;-82
2023/02/08 06:53:21;;;;;;;70.13;67.53;;;6.30;95.20;;;;;;5026763;28;20037;-82
2023/02/08 06:55:48;;;;;;;68.28;65.75;;;6.30;95.20;;;;;;5026411;28;20168;-81
2023/02/08 06:58:14;;;;;;;68.65;66.05;;;6.30;95.20;;;;;;5026433;28;20049;-81
2023/02/08 07:00:40;;;;;;;69.72;67.13;;;6.30;95.20;;;;;;5010147;28;20034;-82
2023/02/08 07:03:06;;;;;;;71.65;68.95;;;6.30;95.20;;;;;;5010180;28;20367;-82
2023/02/08 07:05:34;;;;;;;71.43;68.72;;;6.30;95.20;;;;;;5016337;28;20124;-82
2023/02/08 07:08:00;;;;;;;69.50;66.90;;;6.20;95.20;;;;;;5034553;28;20056;-82
2023/02/08 07:10:26;;;;;;;68.78;66.18;;;6.20;95.20;;;;;;5027768;28;20025;-82
2023/02/08 07:12:52;;;;;;;69.30;66.70;;;6.20;95.20;;;;;;5027685;28;20029;-82
2023/02/08 07:15:17;;;;;;;75.00;72.20;;;6.20;95.20;;;;;;5025951;28;20029;-81
2023/02/08 07:17:43;;;;;;;76.22;73.43;;;6.20;95.20;;;;;;5025885;28;20041;-82
2023/02/08 07:20:10;;;;;;;76.78;73.90;;;6.20;95.10;;;;;;5027879;28;20021;-82
2023/02/08 07:22:36;;;;;;;77.55;74.65;;;6.20;95.10;;;;;;5026296;28;20025;-82
2023/02/08 07:25:02;;;;;;;;;;;6.10;95.10;;;;;;5027645;28;20088;-82
2023/02/08 07:27:28;;;;;;;75.65;72.85;;;6.10;95.10;;;;;;5027191;28;19940;-82
2023/02/08 07:29:54;;;;;;;77.53;74.63;;;6.10;95.10;;;;;;5009759;28;20142;-82
2023/02/08 07:32:19;;;;;;;78.28;75.38;;;6.10;95.10;;;;;;5026145;28;20045;-82
2023/02/08 07:34:45;;;;;;;81.47;78.47;;;6.10;95.10;;;;;;5010156;28;20025;-82
2023/02/08 07:37:11;;;;;;;81.47;78.47;;;6.10;95.10;;;;;;5031344;28;20406;-82
2023/02/08 07:39:37;;;;;;;77.28;74.38;;;6.00;95.10;;;;;;5013165;28;20403;-82
2023/02/08 07:42:05;;;;;;;81.00;78.00;;;6.00;95.10;;;;;;5030664;28;20099;-81
2023/02/08 07:44:31;;;;;;;77.60;74.70;;;6.10;95.10;;;;;;5029572;28;20041;-82
2023/02/08 07:46:57;;;;;;;73.53;70.82;;;6.10;95.20;;;;;;5030942;28;20366;-82
2023/02/08 07:49:23;;;;;;;74.47;71.68;;;6.10;95.20;;;;;;5032288;28;20111;-81
2023/02/08 07:51:48;;;;;;;73.13;70.43;;;6.10;95.20;;;;;;5030671;28;20025;-82
2023/02/08 07:54:14;;;;;;;67.82;65.32;;;6.10;95.20;;;;;;5030729;28;20103;-81
2023/02/08 07:56:40;;;;;;;67.90;65.40;;;6.10;95.20;;;;;;5014139;28;20382;-81
2023/02/08 07:59:06;;;;;;;65.85;63.42;;;6.10;95.20;;;;;;5013819;28;20037;-82
2023/02/08 08:01:31;;;;;;;62.80;60.50;;;6.20;95.20;;;;;;5031639;28;20033;-82
2023/02/08 08:03:57;;;;;;;63.58;61.17;;;6.20;95.20;;;;;;5031440;28;20112;-82
2023/02/08 08:06:23;;;;;;;61.78;59.47;;;6.20;95.20;;;;;;5015153;28;20034;-81
2023/02/08 08:08:49;;;;;;;63.88;61.47;;;6.20;95.20;;;;;;5031048;28;20117;-81
2023/02/08 08:11:16;;;;;;;61.47;59.17;;;6.20;95.20;;;;;;5033255;28;20517;-83
2023/02/08 08:13:42;;;;;;;59.90;57.70;;;6.30;95.20;;;;;;5033022;28;20037;-81
2023/02/08 08:16:08;;;;;;;61.13;58.83;;;6.30;95.20;;;;;;5030339;28;20047;-81
2023/02/08 08:18:34;;;;;;;59.30;57.10;;;6.30;95.20;;;;;;5031004;28;20100;-81
2023/02/08 08:21:00;;;;;;;56.78;54.67;;;6.30;95.20;;;;;;5029659;28;20440;-82
2023/02/08 08:23:27;;;;;;;59.35;57.15;;;6.30;95.20;;;;;;5031872;28;20041;-81
2023/02/08 08:25:54;;;;;;;57.47;55.38;;;6.30;95.20;;;;;;5030909;28;20173;-81
2023/02/08 08:28:20;;;;;;;58.28;56.08;;;6.30;95.20;;;;;;5031913;28;20025;-78
2023/02/08 08:30:46;;;;;;;55.30;53.20;;;6.40;95.30;;;;;;5013432;28;20034;-81
2023/02/08 08:33:13;;;;;;;55.13;53.05;;;6.40;95.30;;;;;;5013619;28;20041;-81
2023/02/08 08:35:39;;;;;;;54.05;52.05;;;6.50;95.30;;;;;;5029895;28;20445;-80
2023/02/08 08:38:05;;;;;;;55.58;53.47;;;6.50;95.30;;;;;;5034117;28;20089;-80
2023/02/08 08:40:31;;;;;;;49.03;47.17;;;6.50;95.30;;;;;;5034430;28;20479;-80
2023/02/08 08:42:57;;;;;;;50.35;48.45;;;6.60;95.30;;;;;;5029162;28;20069;-81
2023/02/08 08:45:22;;;;;;;50.15;48.25;;;6.60;95.30;;;;;;5031423;28;20042;-81
2023/02/08 08:47:48;;;;;;;50.53;48.63;;;6.70;95.30;;;;;;5030954;28;20029;-81
2023/02/08 08:50:14;;;;;;;47.72;45.92;;;6.70;95.30;;;;;;5014131;28;20044;-81
2023/02/08 08:52:41;;;;;;;47.65;45.85;;;6.80;95.30;;;;;;5031466;28;20030;-79
2023/02/08 08:55:07;;;;;;;47.80;46.00;;;6.90;95.30;;;;;;5030378;28;20026;-81
2023/02/08 08:57:33;;;;;;;47.65;45.85;;;6.90;95.30;;;;;;5030178;28;20048;-81
2023/02/08 08:59:59;;;;;;;45.75;44.05;;;6.90;95.30;;;;;;5030030;28;20026;-81
2023/02/08 09:02:25;;;;;;;46.45;44.65;;;7.00;95.40;;;;;;5030919;28;20025;-78
2023/02/08 09:04:51;;;;;;;47.30;45.50;;;7.10;95.40;;;;;;5032724;28;20040;-81
2023/02/08 09:07:16;;;;;;;45.00;43.30;;;7.20;95.40;;;;;;5030427;28;20505;-81
2023/02/08 09:09:46;;;;;;;43.13;41.53;;;7.30;95.40;;;;;;5029339;28;20039;-78
2023/02/08 09:12:13;;;;;;;38.15;36.75;;;7.40;95.40;;;;;;5029829;28;20025;-81
2023/02/08 09:14:39;;;;;;;39.13;37.63;;;7.50;95.40;;;;;;5028104;28;20026;-81
2023/02/08 09:17:05;;;;;;;40.10;38.60;;;7.50;95.40;;;;;;5027884;28;20355;-78
2023/02/08 09:19:31;;;;;;;38.58;37.08;;;7.60;95.40;;;;;;5030239;28;20051;-82
2023/02/08 09:21:56;;;;;;;37.58;36.17;;;7.70;95.40;;;;;;5015404;28;20030;-82
2023/02/08 09:24:23;;;;;;;39.20;37.70;;;7.80;95.50;;;;;;5030231;28;20026;-82
2023/02/08 09:26:48;;;;;;;;;;;7.90;95.40;;;;;;5028754;28;20360;-81
2023/02/08 09:29:14;;;;;;;36.03;34.63;;;7.90;95.50;;;;;;5029618;28;19913;-81
2023/02/08 09:31:40;;;;;;;34.88;33.58;;;8.00;95.50;;;;;;5014458;28;20396;-81
2023/02/08 09:34:07;;;;;;;32.40;31.20;;;8.20;95.50;;;;;;5014509;28;20036;-83
2023/02/08 09:36:36;;;;;;;28.63;27.52;;;8.40;95.70;;;;;;5031156;28;20072;-82
2023/02/08 09:39:12;;;;;;;30.30;29.10;;;8.70;95.80;;;;;;5030836;28;20033;-81
2023/02/08 09:41:43;;;;;;;30.67;29.48;;;8.90;95.70;;;;;;5029579;28;20478;-83
2023/02/08 09:44:38;;;;;;;30.52;29.33;;;9.00;95.50;;;;;;5028151;28;20386;-82
2023/02/08 09:47:35;;;;;;;30.23;29.02;;;9.10;95.50;;;;;;5029649;28;20057;-83
2023/02/08 09:50:13;;;;;;;30.08;28.95;;;9.20;95.50;;;;;;5031942;28;20035;-81
2023/02/08 09:52:51;;;;;;;30.27;29.08;;;9.20;95.40;;;;;;5031278;28;20068;-80
2023/02/08 09:55:39;;;;;;;29.02;27.92;;;9.20;95.40;;;;;;5029894;28;20052;-79
2023/02/08 09:58:41;;;;;;;30.77;29.58;;;9.20;95.50;;;;;;5028418;28;20045;-79
2023/02/08 10:01:20;;;;;;;29.85;28.73;;;9.20;95.50;;;;;;5028756;28;20091;-80
2023/02/08 10:03:47;;;;;;;27.58;26.48;;;9.30;95.60;;;;;;5030817;28;20036;-82
2023/02/08 10:06:18;;;;;;;27.23;26.13;;;9.40;95.70;;;;;;5036637;28;20087;-82
2023/02/08 10:08:46;;;;;;;26.58;25.58;;;9.50;95.60;;;;;;5035169;28;20040;-83
2023/02/08 10:11:33;;;;;;;26.60;25.60;;;9.50;95.50;;;;;;5041539;28;20048;-83
2023/02/08 10:14:27;;;;;;;27.85;26.75;;;9.50;95.40;;;;;;5033242;28;20022;-83
2023/02/08 10:17:00;;;;;;;26.50;25.50;;;9.50;95.40;;;;;;5034834;28;20025;-81
2023/02/08 10:19:58;;;;;;;26.45;25.45;;;9.40;95.40;;;;;;5038616;28;20022;-83
2023/02/08 10:22:33;;;;;;;26.60;25.60;;;9.40;95.50;;;;;;5036800;28;20014;-82
2023/02/08 10:25:08;;;;;;;25.90;24.90;;;9.40;95.50;;;;;;5031694;28;20026;-81
2023/02/08 10:27:58;;;;;;;25.50;24.50;;;9.50;95.60;;;;;;5033385;28;20026;-83
2023/02/08 10:30:44;;;;;;;25.35;24.35;;;9.50;95.60;;;;;;5034113;28;20171;-83
2023/02/08 10:33:16;;;;;;;24.20;23.23;;;9.60;95.60;;;;;;5033755;28;20048;-83
2023/02/08 10:35:45;;;;;;;24.48;23.48;;;9.60;95.60;;;;;;5029605;28;20033;-74
2023/02/08 10:38:20;;;;;;;21.77;20.88;;;9.70;95.60;;;;;;5027613;28;20045;-82
2023/02/08 10:40:50;;;;;;;21.50;20.60;;;9.80;95.70;;;;;;5033541;28;20029;-84
2023/02/08 10:43:20;;;;;;;20.55;19.75;;;9.90;95.70;;;;;;5029750;28;20033;-83
2023/02/08 10:46:01;;;;;;;19.83;19.02;;;10.00;95.70;;;;;;5028444;28;20017;-84
2023/02/08 10:49:02;;;;;;;19.67;18.88;;;10.10;95.70;;;;;;5030043;28;20057;-83
2023/02/08 10:51:29;;;;;;;18.65;17.85;;;10.20;95.70;;;;;;5031234;28;20053;-82
2023/02/08 10:53:55;;;;;;;17.95;17.25;;;10.30;95.70;;;;;;5029115;28;20025;-78
2023/02/08 10:56:27;;;;;;;16.75;16.05;;;10.40;95.70;;;;;;5028823;28;20022;-79
2023/02/08 10:58:52;;;;;;;17.60;16.90;;;10.50;95.70;;;;;;5027798;28;20095;-78
2023/02/08 11:01:18;;;;;;;16.70;16.00;;;10.70;95.80;;;;;;5029216;28;20482;-75
2023/02/08 11:04:01;;;;;;;15.98;15.27;;;10.80;95.80;;;;;;5029130;28;20037;-82
2023/02/08 11:06:27;;;;;;;15.35;14.70;;;11.00;95.80;;;;;;5029203;28;20439;-75
2023/02/08 11:08:55;;;;;;;14.68;14.07;;;11.10;95.80;;;;;;5029123;28;20119;-80
2023/02/08 11:11:21;;;;;;;13.80;13.20;;;11.20;95.70;;;;;;5032470;28;20033;-81
2023/02/08 11:13:50;;;;;;;;;;;11.30;95.80;;;;;;5033722;28;20060;-76
2023/02/08 11:16:24;;;;;;;12.10;11.60;;;11.40;95.80;;;;;;5033205;28;20003;-81
2023/02/08 11:18:57;;;;;;;11.48;10.98;;;11.50;95.70;;;;;;5033099;28;20034;-79
2023/02/08 11:21:23;;;;;;;11.25;10.75;;;11.60;95.70;;;;;;5033430;28;20030;-77
2023/02/08 11:23:51;;;;;;;11.88;11.38;;;11.70;95.70;;;;;;5033483;28;20033;-77
2023/02/08 11:26:33;;;;;;;11.07;10.57;;;11.70;95.70;;;;;;5033140;28;20478;-82
2023/02/08 11:29:01;;;;;;;11.25;10.75;;;11.70;95.60;;;;;;5032962;28;20029;-76
2023/02/08 11:31:27;;;;;;;10.73;10.23;;;11.70;95.60;;;;;;5031747;28;20022;-79
2023/02/08 11:34:00;;;;;;;10.20;9.70;;;11.70;95.70;;;;;;5015044;28;20371;-78
2023/02/08 11:36:27;;;;;;;9.88;9.38;;;11.70;95.80;;;;;;5032776;28;20433;-75
2023/02/08 11:38:53;;;;;;;8.48;8.07;;;11.80;95.80;;;;;;5035443;28;20029;-66
2023/02/08 11:41:20;;;;;;;;;;;11.70;95.70;;;;;;5033709;28;20041;-81
2023/02/08 11:43:57;;;;;;;9.55;9.05;;;11.70;95.60;;;;;;5031770;28;20285;-78
2023/02/08 11:46:27;;;;;;;7.85;7.45;;;11.60;95.60;;;;;;5031457;28;20036;-80
2023/02/08 11:48:54;;;;;;;6.47;6.07;;;11.60;95.70;;;;;;5033492;28;20146;-76
2023/02/08 11:51:38;;;;;;;5.50;5.20;;;11.60;95.70;;;;;;5031657;28;20022;-81
2023/02/08 11:54:04;;;;;;;4.90;4.60;;;11.60;95.80;;;;;;5032096;28;20028;-76
2023/02/08 11:56:32;;;;;;;4.43;4.13;;;11.70;95.80;;;;;;5031850;28;20087;-82
2023/02/08 11:59:01;;;;;;;3.72;3.42;;;11.80;96.00;;;;;;5030625;28;20632;-80
2023/02/08 12:01:32;;;;;;;3.25;3.03;;;11.90;95.90;;;;;;5031453;28;20075;-81
2023/02/08 12:04:01;;;;;;;2.90;2.70;;;12.00;95.90;;;;;;5032119;28;20108;-81
2023/02/08 12:07:07;;;;;;;2.70;2.50;;;12.10;95.90;;;;;;5031778;28;20025;-81
2023/02/08 12:09:50;;;;;;;2.65;2.45;;;12.10;95.80;;;;;;5030649;28;20057;-81
2023/02/08 12:12:31;;;;;;;2.50;2.30;;;12.10;95.70;;;;;;5030675;28;20074;-80
2023/02/08 12:15:43;;;;;;;2.47;2.28;;;12.00;95.70;;;;;;5031600;28;20482;-82
2023/02/08 12:18:47;;;;;;;2.28;2.08;;;12.00;95.60;;;;;;5031755;28;20029;-83
2023/02/08 12:21:18;;;;;;;1.70;1.60;;;11.90;95.70;;;;;;5028630;28;20495;-80
2023/02/08 12:23:55;;;;;;;1.70;1.60;;;11.90;95.70;;;;;;5030130;28;20059;-78
2023/02/08 12:26:38;;;;;;;;;;;11.90;95.70;;;;;;5021960;28;20477;-78
2023/02/08 12:29:26;;;;;;;1.67;1.58;;;11.90;95.70;;;;;;5033454;28;19921;-82
2023/02/08 12:32:10;;;;;;;1.45;1.35;;;11.90;95.70;;;;;;5033253;28;20051;-78
2023/02/08 12:35:03;;;;;;;1.52;1.42;;;11.90;95.80;;;;;;5031671;28;20469;-79
2023/02/08 12:43:40;;;;;;;0.95;0.95;;;12.00;95.70;;;;;;5031824;28;20516;-80
2023/02/08 12:46:21;;;;;;;0.90;0.90;;;12.00;95.80;;;;;;5030843;28;20127;-81
2023/02/08 12:49:05;;;;;;;0.90;0.90;;;12.00;95.70;;;;;;5031146;28;20026;-77
2023/02/08 12:51:55;;;;;;;0.70;0.70;;;12.00;95.70;;;;;;5030870;28;20113;-79
2023/02/08 12:54:41;;;;;;;0.80;0.80;;;12.10;95.90;;;;;;5030233;28;20444;-84
2023/02/08 12:57:13;;;;;;;0.80;0.80;;;12.20;95.80;;;;;;5032295;28;20091;-78
2023/02/08 12:59:50;;;;;;;0.70;0.70;;;12.20;95.70;;;;;;5032256;28;20036;-80
2023/02/08 13:02:43;;;;;;;0.70;0.70;;;12.20;95.70;;;;;;5031308;28;20117;-81
2023/02/08 13:05:16;;;;;;;0.55;0.55;;;12.20;95.70;;;;;;5029697;28;20028;-80